sensor_id;sensor_type;location;lat;lon;timestamp;pressure;altitude;pressure_sealevel;temperature;humidity
60479;BME280;46321;48.398;11.754;2022-09-09T00:03:45;96369.91;;;12.85;88.16
60479;BME280;46321;48.398;11.754;2022-09-09T00:06:23;96369.09;;;12.84;88.09
60479;BME280;46321;48.398;11.754;2022-09-09T00:09:12;96372.31;;;12.79;88.41
60479;BME280;46321;48.398;11.754;2022-09-09T00:11:43;96371.28;;;12.74;88.90
60479;BME280;46321;48.398;11.754;2022-09-09T00:17:06;96363.69;;;12.70;88.59
60479;BME280;46321;48.398;11.754;2022-09-09T00:19:44;96367.56;;;12.68;89.40
60479;BME280;46321;48.398;11.754;2022-09-09T00:22:17;96372.63;;;12.63;89.39
60479;BME280;46321;48.398;11.754;2022-09-09T00:24:49;96372.16;;;12.59;88.89
60479;BME280;46321;48.398;11.754;2022-09-09T00:29:53;96365.53;;;12.48;89.68
60479;BME280;46321;48.398;11.754;2022-09-09T00:32:21;96367.81;;;12.51;89.83
60479;BME280;46321;48.398;11.754;2022-09-09T00:34:53;96363.69;;;12.48;89.83
60479;BME280;46321;48.398;11.754;2022-09-09T00:37:21;96361.50;;;12.52;89.62
60479;BME280;46321;48.398;11.754;2022-09-09T00:39:48;96368.00;;;12.50;89.40
60479;BME280;46321;48.398;11.754;2022-09-09T00:44:51;96370.22;;;12.46;89.80
60479;BME280;46321;48.398;11.754;2022-09-09T00:47:39;96370.84;;;12.48;89.71
60479;BME280;46321;48.398;11.754;2022-09-09T00:52:51;96374.13;;;12.50;89.58
60479;BME280;46321;48.398;11.754;2022-09-09T00:55:28;96375.34;;;12.47;89.75
60479;BME280;46321;48.398;11.754;2022-09-09T00:57:57;96372.81;;;12.39;89.10
60479;BME280;46321;48.398;11.754;2022-09-09T01:05:37;96366.78;;;12.30;90.15
60479;BME280;46321;48.398;11.754;2022-09-09T01:08:18;96365.81;;;12.31;89.25
60479;BME280;46321;48.398;11.754;2022-09-09T01:13:22;96361.50;;;12.30;89.42
60479;BME280;46321;48.398;11.754;2022-09-09T01:15:49;96354.72;;;12.28;89.44
60479;BME280;46321;48.398;11.754;2022-09-09T01:18:17;96360.84;;;12.28;89.23
60479;BME280;46321;48.398;11.754;2022-09-09T01:20:52;96355.94;;;12.25;89.06
60479;BME280;46321;48.398;11.754;2022-09-09T01:23:54;96363.28;;;12.23;89.66
60479;BME280;46321;48.398;11.754;2022-09-09T01:26:30;96358.28;;;12.13;90.05
60479;BME280;46321;48.398;11.754;2022-09-09T01:28:59;96363.00;;;12.18;89.56
60479;BME280;46321;48.398;11.754;2022-09-09T01:31:31;96364.19;;;12.15;89.79
60479;BME280;46321;48.398;11.754;2022-09-09T01:33:58;96360.34;;;12.18;89.84
60479;BME280;46321;48.398;11.754;2022-09-09T01:36:31;96364.00;;;12.17;89.16
60479;BME280;46321;48.398;11.754;2022-09-09T01:39:01;96363.38;;;12.14;89.60
60479;BME280;46321;48.398;11.754;2022-09-09T01:41:27;96357.81;;;12.09;89.74
60479;BME280;46321;48.398;11.754;2022-09-09T01:43:53;96366.41;;;12.11;90.00
60479;BME280;46321;48.398;11.754;2022-09-09T01:46:21;96359.09;;;12.13;89.60
60479;BME280;46321;48.398;11.754;2022-09-09T01:48:48;96368.22;;;12.11;89.96
60479;BME280;46321;48.398;11.754;2022-09-09T01:51:14;96370.03;;;12.10;90.20
60479;BME280;46321;48.398;11.754;2022-09-09T01:53:41;96368.69;;;12.14;89.60
60479;BME280;46321;48.398;11.754;2022-09-09T01:56:43;96371.16;;;12.16;90.17
60479;BME280;46321;48.398;11.754;2022-09-09T01:59:36;96372.38;;;12.13;89.82
60479;BME280;46321;48.398;11.754;2022-09-09T02:04:48;96375.34;;;12.10;89.35
60479;BME280;46321;48.398;11.754;2022-09-09T02:07:24;96380.66;;;12.10;89.73
60479;BME280;46321;48.398;11.754;2022-09-09T02:10:04;96376.38;;;12.09;90.30
60479;BME280;46321;48.398;11.754;2022-09-09T02:12:33;96378.19;;;12.09;89.75
60479;BME280;46321;48.398;11.754;2022-09-09T02:15:04;96371.22;;;12.08;90.54
60479;BME280;46321;48.398;11.754;2022-09-09T02:17:34;96369.81;;;12.05;90.86
60479;BME280;46321;48.398;11.754;2022-09-09T02:20:12;96377.94;;;12.03;90.98
60479;BME280;46321;48.398;11.754;2022-09-09T02:22:41;96378.56;;;12.06;91.04
60479;BME280;46321;48.398;11.754;2022-09-09T02:25:11;96367.16;;;12.05;91.38
60479;BME280;46321;48.398;11.754;2022-09-09T02:27:40;96356.34;;;12.07;91.41
60479;BME280;46321;48.398;11.754;2022-09-09T02:30:07;96362.41;;;12.00;91.52
60479;BME280;46321;48.398;11.754;2022-09-09T02:32:35;96367.16;;;12.05;91.82
60479;BME280;46321;48.398;11.754;2022-09-09T02:35:06;96368.97;;;12.05;93.03
60479;BME280;46321;48.398;11.754;2022-09-09T02:37:42;96363.84;;;12.03;92.56
60479;BME280;46321;48.398;11.754;2022-09-09T02:40:10;96364.22;;;12.00;92.55
60479;BME280;46321;48.398;11.754;2022-09-09T02:42:43;96356.69;;;12.03;92.20
60479;BME280;46321;48.398;11.754;2022-09-09T02:45:11;96353.06;;;12.05;92.28
60479;BME280;46321;48.398;11.754;2022-09-09T02:47:44;96350.41;;;12.05;92.15
60479;BME280;46321;48.398;11.754;2022-09-09T02:52:52;96350.84;;;12.08;91.78
60479;BME280;46321;48.398;11.754;2022-09-09T02:55:39;96347.75;;;12.05;91.67
60479;BME280;46321;48.398;11.754;2022-09-09T02:58:09;96345.25;;;12.03;91.19
60479;BME280;46321;48.398;11.754;2022-09-09T03:00:37;96347.91;;;12.03;91.22
60479;BME280;46321;48.398;11.754;2022-09-09T03:03:05;96348.31;;;12.00;91.51
60479;BME280;46321;48.398;11.754;2022-09-09T03:05:30;96348.50;;;11.98;91.93
60479;BME280;46321;48.398;11.754;2022-09-09T03:07:57;96349.69;;;11.96;92.06
60479;BME280;46321;48.398;11.754;2022-09-09T03:10:22;96340.09;;;11.95;91.82
60479;BME280;46321;48.398;11.754;2022-09-09T03:12:48;96346.22;;;11.95;91.59
60479;BME280;46321;48.398;11.754;2022-09-09T03:15:13;96342.53;;;11.96;91.28
60479;BME280;46321;48.398;11.754;2022-09-09T03:17:39;96341.75;;;11.96;90.98
60479;BME280;46321;48.398;11.754;2022-09-09T03:20:06;96343.50;;;11.88;90.91
60479;BME280;46321;48.398;11.754;2022-09-09T03:22:33;96351.44;;;11.88;90.54
60479;BME280;46321;48.398;11.754;2022-09-09T03:24:58;96343.94;;;11.92;90.55
60479;BME280;46321;48.398;11.754;2022-09-09T03:27:24;96334.16;;;11.93;90.47
60479;BME280;46321;48.398;11.754;2022-09-09T03:29:49;96341.09;;;11.94;91.23
60479;BME280;46321;48.398;11.754;2022-09-09T03:32:18;96344.56;;;11.94;91.57
60479;BME280;46321;48.398;11.754;2022-09-09T03:34:43;96331.50;;;11.93;91.53
60479;BME280;46321;48.398;11.754;2022-09-09T03:37:09;96337.44;;;11.95;91.92
60479;BME280;46321;48.398;11.754;2022-09-09T03:39:35;96337.06;;;11.98;92.05
60479;BME280;46321;48.398;11.754;2022-09-09T03:42:00;96330.38;;;12.02;92.47
60479;BME280;46321;48.398;11.754;2022-09-09T03:44:28;96335.31;;;12.05;92.22
60479;BME280;46321;48.398;11.754;2022-09-09T03:46:54;96339.03;;;12.11;92.54
60479;BME280;46321;48.398;11.754;2022-09-09T03:49:19;96332.91;;;12.10;93.18
60479;BME280;46321;48.398;11.754;2022-09-09T03:51:45;96335.03;;;12.15;92.77
60479;BME280;46321;48.398;11.754;2022-09-09T03:54:10;96329.09;;;12.13;93.02
60479;BME280;46321;48.398;11.754;2022-09-09T03:56:36;96335.44;;;12.19;93.58
60479;BME280;46321;48.398;11.754;2022-09-09T03:59:02;96333.47;;;12.21;93.97
60479;BME280;46321;48.398;11.754;2022-09-09T04:01:28;96337.94;;;12.20;94.07
60479;BME280;46321;48.398;11.754;2022-09-09T04:03:54;96334.09;;;12.23;94.26
60479;BME280;46321;48.398;11.754;2022-09-09T04:06:20;96336.34;;;12.26;94.38
60479;BME280;46321;48.398;11.754;2022-09-09T04:08:46;96334.31;;;12.28;94.60
60479;BME280;46321;48.398;11.754;2022-09-09T04:11:14;96325.16;;;12.31;94.58
60479;BME280;46321;48.398;11.754;2022-09-09T04:13:40;96320.06;;;12.29;94.24
60479;BME280;46321;48.398;11.754;2022-09-09T04:16:07;96327.44;;;12.34;93.87
60479;BME280;46321;48.398;11.754;2022-09-09T04:18:34;96327.25;;;12.35;93.56
60479;BME280;46321;48.398;11.754;2022-09-09T04:21:00;96326.06;;;12.38;93.63
60479;BME280;46321;48.398;11.754;2022-09-09T04:23:27;96320.75;;;12.38;93.73
60479;BME280;46321;48.398;11.754;2022-09-09T04:25:55;96327.69;;;12.39;93.65
60479;BME280;46321;48.398;11.754;2022-09-09T04:28:22;96334.84;;;12.39;93.20
60479;BME280;46321;48.398;11.754;2022-09-09T04:30:48;96332.19;;;12.39;93.49
60479;BME280;46321;48.398;11.754;2022-09-09T04:33:14;96339.13;;;12.40;93.55
60479;BME280;46321;48.398;11.754;2022-09-09T04:35:44;96338.50;;;12.38;93.07
60479;BME280;46321;48.398;11.754;2022-09-09T04:38:10;96340.94;;;12.39;93.14
60479;BME280;46321;48.398;11.754;2022-09-09T04:40:35;96339.75;;;12.42;93.00
60479;BME280;46321;48.398;11.754;2022-09-09T04:43:02;96339.13;;;12.40;93.42
60479;BME280;46321;48.398;11.754;2022-09-09T04:45:30;96328.25;;;12.34;93.32
60479;BME280;46321;48.398;11.754;2022-09-09T04:47:56;96326.06;;;12.38;93.03
60479;BME280;46321;48.398;11.754;2022-09-09T04:50:21;96318.91;;;12.39;92.85
60479;BME280;46321;48.398;11.754;2022-09-09T04:52:47;96314.59;;;12.38;93.20
60479;BME280;46321;48.398;11.754;2022-09-09T04:55:12;96314.81;;;12.36;92.99
60479;BME280;46321;48.398;11.754;2022-09-09T04:57:38;96320.13;;;12.36;92.99
60479;BME280;46321;48.398;11.754;2022-09-09T05:00:04;96312.97;;;12.36;93.03
60479;BME280;46321;48.398;11.754;2022-09-09T05:02:29;96316.44;;;12.37;92.79
60479;BME280;46321;48.398;11.754;2022-09-09T05:04:55;96316.25;;;12.39;92.78
60479;BME280;46321;48.398;11.754;2022-09-09T05:07:21;96321.75;;;12.37;92.67
60479;BME280;46321;48.398;11.754;2022-09-09T05:09:46;96324.59;;;12.35;93.46
60479;BME280;46321;48.398;11.754;2022-09-09T05:12:13;96331.09;;;12.33;92.88
60479;BME280;46321;48.398;11.754;2022-09-09T05:14:38;96334.59;;;12.33;92.70
60479;BME280;46321;48.398;11.754;2022-09-09T05:17:03;96334.00;;;12.38;92.24
60479;BME280;46321;48.398;11.754;2022-09-09T05:19:29;96336.03;;;12.36;92.18
60479;BME280;46321;48.398;11.754;2022-09-09T05:21:56;96329.06;;;12.35;92.16
60479;BME280;46321;48.398;11.754;2022-09-09T05:24:22;96329.91;;;12.35;92.25
60479;BME280;46321;48.398;11.754;2022-09-09T05:26:48;96328.50;;;12.40;92.39
60479;BME280;46321;48.398;11.754;2022-09-09T05:29:13;96330.16;;;12.41;92.10
60479;BME280;46321;48.398;11.754;2022-09-09T05:31:39;96333.63;;;12.41;92.09
60479;BME280;46321;48.398;11.754;2022-09-09T05:34:04;96333.25;;;12.44;92.23
60479;BME280;46321;48.398;11.754;2022-09-09T05:36:29;96336.91;;;12.43;92.69
60479;BME280;46321;48.398;11.754;2022-09-09T05:38:55;96344.06;;;12.43;92.83
60479;BME280;46321;48.398;11.754;2022-09-09T05:41:20;96341.41;;;12.43;94.12
60479;BME280;46321;48.398;11.754;2022-09-09T05:43:46;96334.44;;;12.42;94.03
60479;BME280;46321;48.398;11.754;2022-09-09T05:46:16;96348.97;;;12.46;93.35
60479;BME280;46321;48.398;11.754;2022-09-09T05:48:44;96355.94;;;12.47;93.91
60479;BME280;46321;48.398;11.754;2022-09-09T05:51:17;96347.97;;;12.47;94.24
60479;BME280;46321;48.398;11.754;2022-09-09T05:53:44;96347.19;;;12.53;94.24
60479;BME280;46321;48.398;11.754;2022-09-09T05:56:14;96345.81;;;12.57;93.75
60479;BME280;46321;48.398;11.754;2022-09-09T05:58:40;96344.59;;;12.60;93.76
60479;BME280;46321;48.398;11.754;2022-09-09T06:01:14;96346.06;;;12.63;94.20
60479;BME280;46321;48.398;11.754;2022-09-09T06:03:41;96342.84;;;12.67;94.82
60479;BME280;46321;48.398;11.754;2022-09-09T06:06:13;96347.75;;;12.70;95.05
60479;BME280;46321;48.398;11.754;2022-09-09T06:08:42;96347.38;;;12.74;95.15
60479;BME280;46321;48.398;11.754;2022-09-09T06:11:28;96349.00;;;12.75;95.25
60479;BME280;46321;48.398;11.754;2022-09-09T06:13:58;96339.66;;;12.79;95.37
60479;BME280;46321;48.398;11.754;2022-09-09T06:16:26;96345.38;;;12.82;95.49
60479;BME280;46321;48.398;11.754;2022-09-09T06:18:53;96348.31;;;12.88;95.75
60479;BME280;46321;48.398;11.754;2022-09-09T06:21:24;96351.63;;;12.97;95.12
60479;BME280;46321;48.398;11.754;2022-09-09T06:23:50;96347.97;;;13.04;94.97
60479;BME280;46321;48.398;11.754;2022-09-09T06:26:18;96352.13;;;13.14;95.63
60479;BME280;46321;48.398;11.754;2022-09-09T06:28:45;96339.09;;;13.19;96.43
60479;BME280;46321;48.398;11.754;2022-09-09T06:31:12;96352.22;;;13.27;96.72
60479;BME280;46321;48.398;11.754;2022-09-09T06:33:39;96349.81;;;13.33;96.65
60479;BME280;46321;48.398;11.754;2022-09-09T06:36:20;96342.88;;;13.38;96.70
60479;BME280;46321;48.398;11.754;2022-09-09T06:38:46;96342.06;;;13.45;96.17
60479;BME280;46321;48.398;11.754;2022-09-09T06:41:14;96338.19;;;13.47;95.12
60479;BME280;46321;48.398;11.754;2022-09-09T06:43:39;96341.09;;;13.53;93.96
60479;BME280;46321;48.398;11.754;2022-09-09T06:46:08;96334.41;;;13.57;93.09
60479;BME280;46321;48.398;11.754;2022-09-09T06:48:34;96338.50;;;13.59;92.80
60479;BME280;46321;48.398;11.754;2022-09-09T06:51:07;96342.41;;;13.64;92.78
60479;BME280;46321;48.398;11.754;2022-09-09T06:53:34;96352.44;;;13.68;93.09
60479;BME280;46321;48.398;11.754;2022-09-09T06:58:41;96368.03;;;13.78;92.56
60479;BME280;46321;48.398;11.754;2022-09-09T07:01:08;96365.97;;;13.80;91.48
60479;BME280;46321;48.398;11.754;2022-09-09T07:03:35;96368.25;;;13.83;91.25
60479;BME280;46321;48.398;11.754;2022-09-09T07:06:00;96372.97;;;13.88;91.70
60479;BME280;46321;48.398;11.754;2022-09-09T07:08:26;96379.53;;;13.92;92.06
60479;BME280;46321;48.398;11.754;2022-09-09T07:10:52;96391.63;;;13.95;92.42
60479;BME280;46321;48.398;11.754;2022-09-09T07:13:24;96422.97;;;14.00;92.50
60479;BME280;46321;48.398;11.754;2022-09-09T07:15:51;96434.44;;;14.07;92.29
60479;BME280;46321;48.398;11.754;2022-09-09T07:18:16;96430.38;;;14.11;90.82
60479;BME280;46321;48.398;11.754;2022-09-09T07:20:41;96425.06;;;14.11;90.19
60479;BME280;46321;48.398;11.754;2022-09-09T07:23:07;96433.25;;;14.16;90.93
60479;BME280;46321;48.398;11.754;2022-09-09T07:25:32;96435.53;;;14.19;91.60
60479;BME280;46321;48.398;11.754;2022-09-09T07:27:57;96424.66;;;14.21;91.50
60479;BME280;46321;48.398;11.754;2022-09-09T07:30:22;96417.09;;;14.25;91.99
60479;BME280;46321;48.398;11.754;2022-09-09T07:32:51;96432.47;;;14.29;92.26
60479;BME280;46321;48.398;11.754;2022-09-09T07:35:16;96441.50;;;14.35;91.17
60479;BME280;46321;48.398;11.754;2022-09-09T07:37:41;96441.53;;;14.42;91.03
60479;BME280;46321;48.398;11.754;2022-09-09T07:40:07;96442.13;;;14.44;90.78
60479;BME280;46321;48.398;11.754;2022-09-09T07:42:32;96450.97;;;14.51;90.25
60479;BME280;46321;48.398;11.754;2022-09-09T07:44:58;96445.00;;;14.56;90.06
60479;BME280;46321;48.398;11.754;2022-09-09T07:47:24;96443.19;;;14.57;89.56
60479;BME280;46321;48.398;11.754;2022-09-09T07:49:49;96455.28;;;14.59;89.28
60479;BME280;46321;48.398;11.754;2022-09-09T07:52:15;96462.88;;;14.62;89.37
60479;BME280;46321;48.398;11.754;2022-09-09T07:54:41;96459.19;;;14.63;89.07
60479;BME280;46321;48.398;11.754;2022-09-09T07:57:07;96466.56;;;14.68;88.92
60479;BME280;46321;48.398;11.754;2022-09-09T07:59:32;96447.31;;;14.66;88.51
60479;BME280;46321;48.398;11.754;2022-09-09T08:01:58;96439.31;;;14.66;89.68
60479;BME280;46321;48.398;11.754;2022-09-09T08:04:24;96447.94;;;14.75;89.66
60479;BME280;46321;48.398;11.754;2022-09-09T08:07:00;96441.16;;;14.79;90.44
60479;BME280;46321;48.398;11.754;2022-09-09T08:09:29;96435.88;;;14.86;90.66
60479;BME280;46321;48.398;11.754;2022-09-09T08:11:55;96434.88;;;14.94;90.70
60479;BME280;46321;48.398;11.754;2022-09-09T08:14:22;96434.44;;;15.04;90.32
60479;BME280;46321;48.398;11.754;2022-09-09T08:16:49;96444.50;;;15.15;90.25
60479;BME280;46321;48.398;11.754;2022-09-09T08:19:15;96440.81;;;15.23;90.77
60479;BME280;46321;48.398;11.754;2022-09-09T08:21:41;96437.09;;;15.31;90.23
60479;BME280;46321;48.398;11.754;2022-09-09T08:24:08;96438.13;;;15.43;89.63
60479;BME280;46321;48.398;11.754;2022-09-09T08:26:37;96440.56;;;15.59;90.15
60479;BME280;46321;48.398;11.754;2022-09-09T08:29:06;96435.81;;;15.67;89.16
60479;BME280;46321;48.398;11.754;2022-09-09T08:31:37;96443.34;;;15.77;89.15
60479;BME280;46321;48.398;11.754;2022-09-09T08:34:04;96446.00;;;15.84;86.54
60479;BME280;46321;48.398;11.754;2022-09-09T08:36:34;96456.06;;;15.89;86.40
60479;BME280;46321;48.398;11.754;2022-09-09T08:39:01;96461.41;;;15.89;86.23
60479;BME280;46321;48.398;11.754;2022-09-09T08:44:45;96468.78;;;15.94;85.86
60479;BME280;46321;48.398;11.754;2022-09-09T08:50:07;96462.22;;;15.89;85.18
60479;BME280;46321;48.398;11.754;2022-09-09T08:57:55;96454.00;;;15.84;83.69
60479;BME280;46321;48.398;11.754;2022-09-09T09:00:21;96460.19;;;15.85;84.46
60479;BME280;46321;48.398;11.754;2022-09-09T09:03:08;96455.44;;;15.94;82.83
60479;BME280;46321;48.398;11.754;2022-09-09T09:05:47;96463.66;;;15.85;82.11
60479;BME280;46321;48.398;11.754;2022-09-09T09:10:47;96469.84;;;15.86;81.33
60479;BME280;46321;48.398;11.754;2022-09-09T09:13:15;96470.84;;;15.91;81.37
60479;BME280;46321;48.398;11.754;2022-09-09T09:15:44;96472.91;;;15.89;83.75
60479;BME280;46321;48.398;11.754;2022-09-09T09:18:12;96473.50;;;15.91;83.07
60479;BME280;46321;48.398;11.754;2022-09-09T09:20:50;96465.75;;;15.83;82.35
60479;BME280;46321;48.398;11.754;2022-09-09T09:23:22;96467.78;;;15.81;83.65
60479;BME280;46321;48.398;11.754;2022-09-09T09:25:48;96468.19;;;15.78;83.46
60479;BME280;46321;48.398;11.754;2022-09-09T09:28:23;96454.44;;;15.81;84.65
60479;BME280;46321;48.398;11.754;2022-09-09T09:36:11;96455.31;;;15.61;84.91
60479;BME280;46321;48.398;11.754;2022-09-09T09:38:52;96459.59;;;15.69;84.94
60479;BME280;46321;48.398;11.754;2022-09-09T09:43:56;96457.13;;;15.74;83.83
60479;BME280;46321;48.398;11.754;2022-09-09T09:46:23;96444.41;;;15.76;83.24
60479;BME280;46321;48.398;11.754;2022-09-09T09:49:04;96453.38;;;15.89;83.75
60479;BME280;46321;48.398;11.754;2022-09-09T09:51:33;96456.25;;;15.94;82.92
60479;BME280;46321;48.398;11.754;2022-09-09T09:54:22;96466.09;;;16.00;83.05
60479;BME280;46321;48.398;11.754;2022-09-09T09:56:52;96469.38;;;16.02;83.02
60479;BME280;46321;48.398;11.754;2022-09-09T09:59:32;96469.59;;;15.94;82.42
60479;BME280;46321;48.398;11.754;2022-09-09T10:02:15;96475.56;;;15.89;82.84
60479;BME280;46321;48.398;11.754;2022-09-09T10:04:41;96469.22;;;15.84;83.18
60479;BME280;46321;48.398;11.754;2022-09-09T10:07:20;96478.03;;;15.91;83.96
60479;BME280;46321;48.398;11.754;2022-09-09T10:09:53;96470.63;;;15.93;83.97
60479;BME280;46321;48.398;11.754;2022-09-09T10:12:35;96475.13;;;15.99;83.97
60479;BME280;46321;48.398;11.754;2022-09-09T10:15:35;96471.66;;;16.06;83.86
60479;BME280;46321;48.398;11.754;2022-09-09T10:23:50;96478.94;;;16.31;81.52
60479;BME280;46321;48.398;11.754;2022-09-09T10:26:32;96476.47;;;16.29;81.84
60479;BME280;46321;48.398;11.754;2022-09-09T10:29:22;96474.00;;;16.34;82.33
60479;BME280;46321;48.398;11.754;2022-09-09T10:34:33;96476.38;;;16.50;80.97
60479;BME280;46321;48.398;11.754;2022-09-09T10:37:11;96476.56;;;16.55;79.65
60479;BME280;46321;48.398;11.754;2022-09-09T10:39:43;96475.94;;;16.59;79.76
60479;BME280;46321;48.398;11.754;2022-09-09T10:42:16;96483.59;;;16.42;79.05
60479;BME280;46321;48.398;11.754;2022-09-09T10:44:48;96476.72;;;16.60;79.39
60479;BME280;46321;48.398;11.754;2022-09-09T10:50:18;96469.03;;;16.77;79.33
60479;BME280;46321;48.398;11.754;2022-09-09T10:53:01;96480.63;;;16.64;80.27
60479;BME280;46321;48.398;11.754;2022-09-09T10:55:41;96469.94;;;16.64;79.30
60479;BME280;46321;48.398;11.754;2022-09-09T10:58:11;96470.88;;;16.77;79.19
60479;BME280;46321;48.398;11.754;2022-09-09T11:00:43;96466.50;;;16.82;77.99
60479;BME280;46321;48.398;11.754;2022-09-09T11:03:29;96466.88;;;16.60;79.17
60479;BME280;46321;48.398;11.754;2022-09-09T11:06:02;96470.50;;;16.73;79.35
60479;BME280;46321;48.398;11.754;2022-09-09T11:08:30;96470.63;;;16.85;78.41
60479;BME280;46321;48.398;11.754;2022-09-09T11:11:11;96476.53;;;16.94;78.41
60479;BME280;46321;48.398;11.754;2022-09-09T11:16:33;96478.22;;;16.88;78.25
60479;BME280;46321;48.398;11.754;2022-09-09T11:21:52;96461.03;;;17.03;77.65
60479;BME280;46321;48.398;11.754;2022-09-09T11:24:24;96460.38;;;17.08;77.63
60479;BME280;46321;48.398;11.754;2022-09-09T11:26:56;96459.81;;;17.31;76.41
60479;BME280;46321;48.398;11.754;2022-09-09T11:36:00;96447.97;;;17.83;73.56
60479;BME280;46321;48.398;11.754;2022-09-09T11:38:44;96451.41;;;17.91;73.11
60479;BME280;46321;48.398;11.754;2022-09-09T11:41:11;96453.03;;;18.11;72.67
60479;BME280;46321;48.398;11.754;2022-09-09T11:43:42;96444.91;;;18.36;71.59
60479;BME280;46321;48.398;11.754;2022-09-09T11:46:09;96449.09;;;18.63;70.53
60479;BME280;46321;48.398;11.754;2022-09-09T11:48:40;96451.47;;;18.83;69.39
60479;BME280;46321;48.398;11.754;2022-09-09T11:56:34;96448.06;;;18.76;67.88
60479;BME280;46321;48.398;11.754;2022-09-09T11:59:25;96444.03;;;18.97;68.38
60479;BME280;46321;48.398;11.754;2022-09-09T12:04:29;96455.59;;;18.98;68.96
60479;BME280;46321;48.398;11.754;2022-09-09T12:07:18;96442.78;;;19.12;68.79
60479;BME280;46321;48.398;11.754;2022-09-09T12:09:49;96439.44;;;19.29;69.00
60479;BME280;46321;48.398;11.754;2022-09-09T12:12:23;96447.81;;;19.20;65.97
60479;BME280;46321;48.398;11.754;2022-09-09T12:17:25;96444.28;;;19.08;67.03
60479;BME280;46321;48.398;11.754;2022-09-09T12:25:35;96444.75;;;18.50;66.65
60479;BME280;46321;48.398;11.754;2022-09-09T12:28:06;96435.63;;;18.39;67.14
60479;BME280;46321;48.398;11.754;2022-09-09T12:30:42;96432.50;;;18.54;66.82
60479;BME280;46321;48.398;11.754;2022-09-09T12:33:13;96426.25;;;18.60;65.85
60479;BME280;46321;48.398;11.754;2022-09-09T12:35:43;96429.78;;;18.85;65.20
60479;BME280;46321;48.398;11.754;2022-09-09T12:38:15;96424.13;;;19.05;63.88
60479;BME280;46321;48.398;11.754;2022-09-09T12:40:54;96414.34;;;19.23;63.41
60479;BME280;46321;48.398;11.754;2022-09-09T12:43:22;96420.06;;;19.27;63.68
60479;BME280;46321;48.398;11.754;2022-09-09T12:45:49;96420.84;;;19.03;61.50
60479;BME280;46321;48.398;11.754;2022-09-09T12:48:17;96418.28;;;18.96;62.12
60479;BME280;46321;48.398;11.754;2022-09-09T12:50:50;96409.13;;;18.73;62.38
60479;BME280;46321;48.398;11.754;2022-09-09T12:53:23;96417.41;;;18.72;62.86
60479;BME280;46321;48.398;11.754;2022-09-09T12:55:54;96411.13;;;18.66;62.50
60479;BME280;46321;48.398;11.754;2022-09-09T12:58:21;96413.28;;;18.57;62.19
60479;BME280;46321;48.398;11.754;2022-09-09T13:00:53;96401.22;;;18.79;62.58
60479;BME280;46321;48.398;11.754;2022-09-09T13:03:21;96392.84;;;18.87;61.60
60479;BME280;46321;48.398;11.754;2022-09-09T13:05:47;96388.19;;;18.94;61.48
60479;BME280;46321;48.398;11.754;2022-09-09T13:08:14;96379.16;;;19.19;62.21
60479;BME280;46321;48.398;11.754;2022-09-09T13:10:47;96385.09;;;19.21;61.42
60479;BME280;46321;48.398;11.754;2022-09-09T13:13:20;96373.75;;;19.07;60.24
60479;BME280;46321;48.398;11.754;2022-09-09T13:15:55;96369.53;;;19.11;61.43
60479;BME280;46321;48.398;11.754;2022-09-09T13:18:27;96377.97;;;19.27;62.39
60479;BME280;46321;48.398;11.754;2022-09-09T13:20:53;96373.78;;;19.19;61.38
60479;BME280;46321;48.398;11.754;2022-09-09T13:23:20;96366.88;;;18.99;62.38
60479;BME280;46321;48.398;11.754;2022-09-09T13:25:57;96364.84;;;18.83;63.06
60479;BME280;46321;48.398;11.754;2022-09-09T13:28:26;96367.53;;;18.83;63.18
60479;BME280;46321;48.398;11.754;2022-09-09T13:30:59;96368.03;;;18.92;63.06
60479;BME280;46321;48.398;11.754;2022-09-09T13:33:43;96359.59;;;18.76;63.53
60479;BME280;46321;48.398;11.754;2022-09-09T13:36:11;96364.28;;;18.81;63.08
60479;BME280;46321;48.398;11.754;2022-09-09T13:41:23;96345.88;;;18.96;63.71
60479;BME280;46321;48.398;11.754;2022-09-09T13:43:49;96352.28;;;19.07;63.95
60479;BME280;46321;48.398;11.754;2022-09-09T13:46:26;96346.69;;;19.09;62.85
60479;BME280;46321;48.398;11.754;2022-09-09T13:48:59;96347.28;;;18.99;62.88
60479;BME280;46321;48.398;11.754;2022-09-09T13:51:34;96342.72;;;18.99;62.47
60479;BME280;46321;48.398;11.754;2022-09-09T13:54:00;96335.72;;;18.98;62.16
60479;BME280;46321;48.398;11.754;2022-09-09T13:56:26;96338.16;;;19.00;61.15
60479;BME280;46321;48.398;11.754;2022-09-09T13:58:52;96340.03;;;19.11;60.44
60479;BME280;46321;48.398;11.754;2022-09-09T14:01:17;96331.88;;;18.94;60.47
60479;BME280;46321;48.398;11.754;2022-09-09T14:03:42;96328.50;;;18.87;61.23
60479;BME280;46321;48.398;11.754;2022-09-09T14:06:09;96331.06;;;18.94;61.43
60479;BME280;46321;48.398;11.754;2022-09-09T14:08:35;96329.56;;;18.86;60.76
60479;BME280;46321;48.398;11.754;2022-09-09T14:11:03;96320.47;;;18.99;61.23
60479;BME280;46321;48.398;11.754;2022-09-09T14:13:28;96320.09;;;19.07;61.42
60479;BME280;46321;48.398;11.754;2022-09-09T14:15:53;96317.88;;;18.80;61.76
60479;BME280;46321;48.398;11.754;2022-09-09T14:18:19;96313.81;;;18.90;62.21
60479;BME280;46321;48.398;11.754;2022-09-09T14:20:44;96331.06;;;18.94;61.54
60479;BME280;46321;48.398;11.754;2022-09-09T14:23:11;96322.78;;;18.95;62.64
60479;BME280;46321;48.398;11.754;2022-09-09T14:25:39;96321.97;;;18.95;62.18
60479;BME280;46321;48.398;11.754;2022-09-09T14:28:05;96325.56;;;18.88;63.04
60479;BME280;46321;48.398;11.754;2022-09-09T14:30:30;96323.25;;;18.80;63.41
60479;BME280;46321;48.398;11.754;2022-09-09T14:32:55;96331.41;;;18.85;64.13
60479;BME280;46321;48.398;11.754;2022-09-09T14:35:20;96320.31;;;18.82;64.23
60479;BME280;46321;48.398;11.754;2022-09-09T14:37:47;96328.97;;;18.84;63.20